sensor_id;sensor_type;location;lat;lon;timestamp;temperature;humidity
53254;DHT22;39148;53.332;6.922;2023-07-24T00:01:09;18.90;84.80
53254;DHT22;39148;53.332;6.922;2023-07-24T00:03:35;18.80;84.80
53254;DHT22;39148;53.332;6.922;2023-07-24T00:06:01;18.90;84.90
53254;DHT22;39148;53.332;6.922;2023-07-24T00:08:27;18.90;85.00
53254;DHT22;39148;53.332;6.922;2023-07-24T00:10:52;18.80;85.00
53254;DHT22;39148;53.332;6.922;2023-07-24T00:13:18;17.60;84.40
53254;DHT22;39148;53.332;6.922;2023-07-24T00:15:44;18.80;85.00
53254;DHT22;39148;53.332;6.922;2023-07-24T00:18:10;18.90;85.10
53254;DHT22;39148;53.332;6.922;2023-07-24T00:20:36;18.80;85.10
53254;DHT22;39148;53.332;6.922;2023-07-24T00:23:01;18.90;85.20
53254;DHT22;39148;53.332;6.922;2023-07-24T00:25:27;18.70;85.20
53254;DHT22;39148;53.332;6.922;2023-07-24T00:27:53;18.70;85.10
53254;DHT22;39148;53.332;6.922;2023-07-24T00:30:18;18.80;85.40
53254;DHT22;39148;53.332;6.922;2023-07-24T00:32:44;18.80;85.30
53254;DHT22;39148;53.332;6.922;2023-07-24T00:35:10;18.80;85.30
53254;DHT22;39148;53.332;6.922;2023-07-24T00:37:35;18.70;85.30
53254;DHT22;39148;53.332;6.922;2023-07-24T00:40:02;18.70;85.10
53254;DHT22;39148;53.332;6.922;2023-07-24T00:42:28;18.80;85.50
53254;DHT22;39148;53.332;6.922;2023-07-24T00:44:54;18.70;85.30
53254;DHT22;39148;53.332;6.922;2023-07-24T00:47:19;18.70;85.40
53254;DHT22;39148;53.332;6.922;2023-07-24T00:49:48;18.70;85.30
53254;DHT22;39148;53.332;6.922;2023-07-24T00:52:15;18.70;85.60
53254;DHT22;39148;53.332;6.922;2023-07-24T00:54:41;18.70;85.40
53254;DHT22;39148;53.332;6.922;2023-07-24T00:57:09;18.70;85.60
53254;DHT22;39148;53.332;6.922;2023-07-24T00:59:34;18.70;85.40
53254;DHT22;39148;53.332;6.922;2023-07-24T01:02:01;18.50;85.40
53254;DHT22;39148;53.332;6.922;2023-07-24T01:04:26;18.70;85.30
53254;DHT22;39148;53.332;6.922;2023-07-24T01:06:52;18.70;85.50
53254;DHT22;39148;53.332;6.922;2023-07-24T01:09:18;18.70;85.50
53254;DHT22;39148;53.332;6.922;2023-07-24T01:11:47;18.70;85.60
53254;DHT22;39148;53.332;6.922;2023-07-24T01:14:24;18.60;85.70
53254;DHT22;39148;53.332;6.922;2023-07-24T01:16:57;18.70;85.90
53254;DHT22;39148;53.332;6.922;2023-07-24T01:19:36;18.70;84.50
53254;DHT22;39148;53.332;6.922;2023-07-24T01:27:23;18.60;84.40
53254;DHT22;39148;53.332;6.922;2023-07-24T01:29:49;18.70;85.70
53254;DHT22;39148;53.332;6.922;2023-07-24T01:32:15;18.70;85.60
53254;DHT22;39148;53.332;6.922;2023-07-24T01:34:42;18.70;85.40
53254;DHT22;39148;53.332;6.922;2023-07-24T01:37:08;18.80;85.70
53254;DHT22;39148;53.332;6.922;2023-07-24T01:39:35;18.70;87.90
53254;DHT22;39148;53.332;6.922;2023-07-24T01:42:01;18.60;85.60
53254;DHT22;39148;53.332;6.922;2023-07-24T01:44:27;18.60;85.60
53254;DHT22;39148;53.332;6.922;2023-07-24T01:46:53;18.70;85.60
53254;DHT22;39148;53.332;6.922;2023-07-24T01:49:18;18.60;85.60
53254;DHT22;39148;53.332;6.922;2023-07-24T01:51:44;18.70;85.60
53254;DHT22;39148;53.332;6.922;2023-07-24T01:54:10;18.60;85.60
53254;DHT22;39148;53.332;6.922;2023-07-24T01:56:36;18.60;85.60
53254;DHT22;39148;53.332;6.922;2023-07-24T01:59:02;18.60;85.70
53254;DHT22;39148;53.332;6.922;2023-07-24T02:01:28;18.60;85.60
53254;DHT22;39148;53.332;6.922;2023-07-24T02:03:54;18.60;85.60
53254;DHT22;39148;53.332;6.922;2023-07-24T02:06:19;18.60;85.60
53254;DHT22;39148;53.332;6.922;2023-07-24T02:08:45;18.60;85.60
53254;DHT22;39148;53.332;6.922;2023-07-24T02:11:15;18.60;85.60
53254;DHT22;39148;53.332;6.922;2023-07-24T02:13:43;18.50;85.70
53254;DHT22;39148;53.332;6.922;2023-07-24T02:16:10;18.50;85.70
53254;DHT22;39148;53.332;6.922;2023-07-24T02:18:37;18.60;85.70
53254;DHT22;39148;53.332;6.922;2023-07-24T02:21:02;18.70;85.80
53254;DHT22;39148;53.332;6.922;2023-07-24T02:23:28;18.60;85.50
53254;DHT22;39148;53.332;6.922;2023-07-24T02:25:54;18.50;85.60
53254;DHT22;39148;53.332;6.922;2023-07-24T02:28:19;18.50;85.50
53254;DHT22;39148;53.332;6.922;2023-07-24T02:30:46;18.50;85.60
53254;DHT22;39148;53.332;6.922;2023-07-24T02:33:12;18.50;85.70
53254;DHT22;39148;53.332;6.922;2023-07-24T02:35:41;18.50;85.50
53254;DHT22;39148;53.332;6.922;2023-07-24T02:38:07;18.60;85.70
53254;DHT22;39148;53.332;6.922;2023-07-24T02:40:33;18.50;85.50
53254;DHT22;39148;53.332;6.922;2023-07-24T02:42:59;18.60;85.70
53254;DHT22;39148;53.332;6.922;2023-07-24T02:45:25;18.50;85.60
53254;DHT22;39148;53.332;6.922;2023-07-24T02:47:51;18.50;85.40
53254;DHT22;39148;53.332;6.922;2023-07-24T02:50:16;18.50;85.60
53254;DHT22;39148;53.332;6.922;2023-07-24T02:52:42;18.50;85.60
53254;DHT22;39148;53.332;6.922;2023-07-24T02:55:08;18.50;85.60
53254;DHT22;39148;53.332;6.922;2023-07-24T02:57:33;18.40;85.30
53254;DHT22;39148;53.332;6.922;2023-07-24T02:59:59;18.50;85.60
53254;DHT22;39148;53.332;6.922;2023-07-24T03:02:25;18.40;85.50
53254;DHT22;39148;53.332;6.922;2023-07-24T03:04:50;18.40;85.50
53254;DHT22;39148;53.332;6.922;2023-07-24T03:07:16;18.50;85.60
53254;DHT22;39148;53.332;6.922;2023-07-24T03:09:42;18.50;85.60
53254;DHT22;39148;53.332;6.922;2023-07-24T03:12:08;18.50;85.60
53254;DHT22;39148;53.332;6.922;2023-07-24T03:14:33;18.40;85.60
53254;DHT22;39148;53.332;6.922;2023-07-24T03:16:59;18.40;85.60
53254;DHT22;39148;53.332;6.922;2023-07-24T03:19:25;18.40;85.60
53254;DHT22;39148;53.332;6.922;2023-07-24T03:21:50;18.40;85.60
53254;DHT22;39148;53.332;6.922;2023-07-24T03:24:16;18.40;85.70
53254;DHT22;39148;53.332;6.922;2023-07-24T03:26:42;18.40;85.70
53254;DHT22;39148;53.332;6.922;2023-07-24T03:29:08;18.50;85.70
53254;DHT22;39148;53.332;6.922;2023-07-24T03:31:34;18.40;85.80
53254;DHT22;39148;53.332;6.922;2023-07-24T03:33:59;18.50;85.70
53254;DHT22;39148;53.332;6.922;2023-07-24T03:36:25;18.40;85.70
53254;DHT22;39148;53.332;6.922;2023-07-24T03:38:51;18.40;85.80
53254;DHT22;39148;53.332;6.922;2023-07-24T03:41:16;18.50;85.80
53254;DHT22;39148;53.332;6.922;2023-07-24T03:43:42;17.20;85.10
53254;DHT22;39148;53.332;6.922;2023-07-24T03:46:08;18.40;85.80
53254;DHT22;39148;53.332;6.922;2023-07-24T03:48:33;18.40;85.80
53254;DHT22;39148;53.332;6.922;2023-07-24T03:51:01;18.40;85.80
53254;DHT22;39148;53.332;6.922;2023-07-24T03:53:27;18.40;85.80
53254;DHT22;39148;53.332;6.922;2023-07-24T03:55:53;18.40;85.80
53254;DHT22;39148;53.332;6.922;2023-07-24T03:58:19;18.40;86.00
53254;DHT22;39148;53.332;6.922;2023-07-24T04:00:44;18.40;85.90
53254;DHT22;39148;53.332;6.922;2023-07-24T04:03:10;18.40;85.80
53254;DHT22;39148;53.332;6.922;2023-07-24T04:05:36;18.40;86.30
53254;DHT22;39148;53.332;6.922;2023-07-24T04:08:02;18.30;87.60
53254;DHT22;39148;53.332;6.922;2023-07-24T04:10:28;16.60;84.70
53254;DHT22;39148;53.332;6.922;2023-07-24T04:12:54;18.40;85.80
53254;DHT22;39148;53.332;6.922;2023-07-24T04:15:20;18.30;85.80
53254;DHT22;39148;53.332;6.922;2023-07-24T04:17:45;18.40;85.80
53254;DHT22;39148;53.332;6.922;2023-07-24T04:20:11;18.30;85.80
53254;DHT22;39148;53.332;6.922;2023-07-24T04:22:37;18.40;85.80
53254;DHT22;39148;53.332;6.922;2023-07-24T04:25:03;18.40;87.70
53254;DHT22;39148;53.332;6.922;2023-07-24T04:27:29;18.40;85.60
53254;DHT22;39148;53.332;6.922;2023-07-24T04:29:54;18.50;85.90
53254;DHT22;39148;53.332;6.922;2023-07-24T04:32:20;18.30;85.70
53254;DHT22;39148;53.332;6.922;2023-07-24T04:34:46;18.30;85.80
53254;DHT22;39148;53.332;6.922;2023-07-24T04:37:11;18.30;85.70
53254;DHT22;39148;53.332;6.922;2023-07-24T04:39:40;18.40;85.90
53254;DHT22;39148;53.332;6.922;2023-07-24T04:42:06;18.30;86.00
53254;DHT22;39148;53.332;6.922;2023-07-24T04:44:32;18.30;85.80
53254;DHT22;39148;53.332;6.922;2023-07-24T04:46:58;18.40;85.90
53254;DHT22;39148;53.332;6.922;2023-07-24T04:49:24;18.40;86.00
53254;DHT22;39148;53.332;6.922;2023-07-24T04:51:50;18.40;86.00
53254;DHT22;39148;53.332;6.922;2023-07-24T04:54:17;18.40;87.70
53254;DHT22;39148;53.332;6.922;2023-07-24T04:56:43;18.40;86.10
53254;DHT22;39148;53.332;6.922;2023-07-24T04:59:08;18.40;85.90
53254;DHT22;39148;53.332;6.922;2023-07-24T05:01:34;18.40;86.00
53254;DHT22;39148;53.332;6.922;2023-07-24T05:04:00;18.40;86.10
53254;DHT22;39148;53.332;6.922;2023-07-24T05:06:26;18.40;86.00
53254;DHT22;39148;53.332;6.922;2023-07-24T05:08:55;18.40;88.10
53254;DHT22;39148;53.332;6.922;2023-07-24T05:11:20;18.30;86.10
53254;DHT22;39148;53.332;6.922;2023-07-24T05:13:46;18.30;86.00
53254;DHT22;39148;53.332;6.922;2023-07-24T05:16:12;18.30;86.00
53254;DHT22;39148;53.332;6.922;2023-07-24T05:18:37;18.50;86.10
53254;DHT22;39148;53.332;6.922;2023-07-24T05:21:03;18.30;86.00
53254;DHT22;39148;53.332;6.922;2023-07-24T05:23:29;18.30;86.00
53254;DHT22;39148;53.332;6.922;2023-07-24T05:25:59;18.40;86.10
53254;DHT22;39148;53.332;6.922;2023-07-24T05:28:26;18.50;86.30
53254;DHT22;39148;53.332;6.922;2023-07-24T05:30:52;18.40;86.20
53254;DHT22;39148;53.332;6.922;2023-07-24T05:33:18;18.30;86.00
53254;DHT22;39148;53.332;6.922;2023-07-24T05:35:43;18.40;86.10
53254;DHT22;39148;53.332;6.922;2023-07-24T05:38:09;18.40;86.00
53254;DHT22;39148;53.332;6.922;2023-07-24T05:40:35;18.30;87.90
53254;DHT22;39148;53.332;6.922;2023-07-24T05:43:01;18.40;86.10
53254;DHT22;39148;53.332;6.922;2023-07-24T05:45:27;18.30;86.00
53254;DHT22;39148;53.332;6.922;2023-07-24T05:47:53;18.30;86.10
53254;DHT22;39148;53.332;6.922;2023-07-24T05:50:19;18.40;86.10
53254;DHT22;39148;53.332;6.922;2023-07-24T05:52:44;18.40;86.10
53254;DHT22;39148;53.332;6.922;2023-07-24T05:55:10;18.40;86.00
53254;DHT22;39148;53.332;6.922;2023-07-24T05:57:36;18.40;86.00
53254;DHT22;39148;53.332;6.922;2023-07-24T06:00:06;18.30;87.90
53254;DHT22;39148;53.332;6.922;2023-07-24T06:02:32;18.30;85.90
53254;DHT22;39148;53.332;6.922;2023-07-24T06:04:57;18.30;86.30
53254;DHT22;39148;53.332;6.922;2023-07-24T06:07:23;18.30;86.00
53254;DHT22;39148;53.332;6.922;2023-07-24T06:09:49;18.30;86.00
53254;DHT22;39148;53.332;6.922;2023-07-24T06:12:15;18.40;86.20
53254;DHT22;39148;53.332;6.922;2023-07-24T06:14:41;18.40;86.10
53254;DHT22;39148;53.332;6.922;2023-07-24T06:17:06;18.30;86.00
53254;DHT22;39148;53.332;6.922;2023-07-24T06:19:32;18.30;86.00
53254;DHT22;39148;53.332;6.922;2023-07-24T06:21:58;18.40;86.20
53254;DHT22;39148;53.332;6.922;2023-07-24T06:24:23;18.40;86.10
53254;DHT22;39148;53.332;6.922;2023-07-24T06:26:50;18.40;86.20
53254;DHT22;39148;53.332;6.922;2023-07-24T06:29:16;18.30;86.10
53254;DHT22;39148;53.332;6.922;2023-07-24T06:31:42;18.30;86.20
53254;DHT22;39148;53.332;6.922;2023-07-24T06:34:07;18.40;86.10
53254;DHT22;39148;53.332;6.922;2023-07-24T06:36:33;18.30;86.20
53254;DHT22;39148;53.332;6.922;2023-07-24T06:38:59;18.30;86.20
53254;DHT22;39148;53.332;6.922;2023-07-24T06:41:24;18.40;86.30
53254;DHT22;39148;53.332;6.922;2023-07-24T06:43:51;18.50;88.20
53254;DHT22;39148;53.332;6.922;2023-07-24T06:46:17;18.30;86.20
53254;DHT22;39148;53.332;6.922;2023-07-24T06:48:43;18.40;86.00
53254;DHT22;39148;53.332;6.922;2023-07-24T06:51:08;18.40;86.10
53254;DHT22;39148;53.332;6.922;2023-07-24T06:53:34;18.40;86.70
53254;DHT22;39148;53.332;6.922;2023-07-24T06:56:00;18.70;86.30
53254;DHT22;39148;53.332;6.922;2023-07-24T06:58:25;18.40;86.20
53254;DHT22;39148;53.332;6.922;2023-07-24T07:00:51;18.40;86.30
53254;DHT22;39148;53.332;6.922;2023-07-24T07:03:17;18.50;86.30
53254;DHT22;39148;53.332;6.922;2023-07-24T07:05:42;18.50;86.30
53254;DHT22;39148;53.332;6.922;2023-07-24T07:08:08;18.50;86.50
53254;DHT22;39148;53.332;6.922;2023-07-24T07:10:34;18.50;86.30
53254;DHT22;39148;53.332;6.922;2023-07-24T07:12:59;18.50;86.30
53254;DHT22;39148;53.332;6.922;2023-07-24T07:15:25;18.60;86.40
53254;DHT22;39148;53.332;6.922;2023-07-24T07:17:51;18.40;86.30
53254;DHT22;39148;53.332;6.922;2023-07-24T07:20:16;18.40;86.10
53254;DHT22;39148;53.332;6.922;2023-07-24T07:22:42;18.50;86.00
53254;DHT22;39148;53.332;6.922;2023-07-24T07:25:08;18.50;85.70
53254;DHT22;39148;53.332;6.922;2023-07-24T07:27:34;18.50;87.30
53254;DHT22;39148;53.332;6.922;2023-07-24T07:29:59;18.60;85.40
53254;DHT22;39148;53.332;6.922;2023-07-24T07:32:25;18.60;85.20
53254;DHT22;39148;53.332;6.922;2023-07-24T07:34:52;18.60;85.10
53254;DHT22;39148;53.332;6.922;2023-07-24T07:37:18;18.60;85.10
53254;DHT22;39148;53.332;6.922;2023-07-24T07:39:43;18.60;85.00
53254;DHT22;39148;53.332;6.922;2023-07-24T07:42:09;18.70;85.00
53254;DHT22;39148;53.332;6.922;2023-07-24T07:44:35;18.70;85.00
53254;DHT22;39148;53.332;6.922;2023-07-24T07:47:01;18.60;84.90
53254;DHT22;39148;53.332;6.922;2023-07-24T07:49:26;18.80;84.90
53254;DHT22;39148;53.332;6.922;2023-07-24T07:51:52;18.70;84.70
53254;DHT22;39148;53.332;6.922;2023-07-24T07:54:18;18.80;84.80
53254;DHT22;39148;53.332;6.922;2023-07-24T07:56:44;18.70;84.70
53254;DHT22;39148;53.332;6.922;2023-07-24T07:59:09;18.80;84.80
53254;DHT22;39148;53.332;6.922;2023-07-24T08:01:38;18.90;84.70
53254;DHT22;39148;53.332;6.922;2023-07-24T08:04:05;18.80;84.80
53254;DHT22;39148;53.332;6.922;2023-07-24T08:06:30;18.80;84.60
53254;DHT22;39148;53.332;6.922;2023-07-24T08:08:56;18.90;84.70
53254;DHT22;39148;53.332;6.922;2023-07-24T08:11:22;18.90;84.60
53254;DHT22;39148;53.332;6.922;2023-07-24T08:13:47;18.90;84.60
53254;DHT22;39148;53.332;6.922;2023-07-24T08:16:16;18.80;84.50
53254;DHT22;39148;53.332;6.922;2023-07-24T08:18:47;19.00;84.70
53254;DHT22;39148;53.332;6.922;2023-07-24T08:21:14;19.00;84.80
53254;DHT22;39148;53.332;6.922;2023-07-24T08:23:40;19.00;84.60
53254;DHT22;39148;53.332;6.922;2023-07-24T08:26:06;19.00;84.50
53254;DHT22;39148;53.332;6.922;2023-07-24T08:28:33;18.80;84.40
53254;DHT22;39148;53.332;6.922;2023-07-24T08:31:00;19.00;84.40
53254;DHT22;39148;53.332;6.922;2023-07-24T08:33:29;19.10;83.50
53254;DHT22;39148;53.332;6.922;2023-07-24T08:36:06;19.10;84.30
53254;DHT22;39148;53.332;6.922;2023-07-24T08:38:33;19.10;84.70
53254;DHT22;39148;53.332;6.922;2023-07-24T08:41:12;19.10;84.40
53254;DHT22;39148;53.332;6.922;2023-07-24T08:43:40;19.10;83.30
53254;DHT22;39148;53.332;6.922;2023-07-24T08:46:06;19.10;84.40
53254;DHT22;39148;53.332;6.922;2023-07-24T08:48:37;19.10;84.30
53254;DHT22;39148;53.332;6.922;2023-07-24T08:51:05;19.30;84.50
53254;DHT22;39148;53.332;6.922;2023-07-24T08:53:33;19.20;84.30
53254;DHT22;39148;53.332;6.922;2023-07-24T08:56:02;19.20;84.30
53254;DHT22;39148;53.332;6.922;2023-07-24T08:58:28;19.10;84.20
53254;DHT22;39148;53.332;6.922;2023-07-24T09:00:56;19.20;84.00
53254;DHT22;39148;53.332;6.922;2023-07-24T09:03:22;19.30;84.20
53254;DHT22;39148;53.332;6.922;2023-07-24T09:05:47;19.20;83.90
53254;DHT22;39148;53.332;6.922;2023-07-24T09:08:13;19.20;83.90
53254;DHT22;39148;53.332;6.922;2023-07-24T09:10:39;19.20;83.90
53254;DHT22;39148;53.332;6.922;2023-07-24T09:13:05;19.30;83.80
53254;DHT22;39148;53.332;6.922;2023-07-24T09:15:43;19.40;83.90
53254;DHT22;39148;53.332;6.922;2023-07-24T09:18:10;19.40;84.30
53254;DHT22;39148;53.332;6.922;2023-07-24T09:20:40;19.30;84.00
53254;DHT22;39148;53.332;6.922;2023-07-24T09:23:07;19.30;84.10
53254;DHT22;39148;53.332;6.922;2023-07-24T09:25:38;19.40;84.00
53254;DHT22;39148;53.332;6.922;2023-07-24T09:28:18;19.30;84.00
53254;DHT22;39148;53.332;6.922;2023-07-24T09:30:57;19.30;82.80
53254;DHT22;39148;53.332;6.922;2023-07-24T09:33:33;19.30;84.10
53254;DHT22;39148;53.332;6.922;2023-07-24T09:36:03;19.40;83.80
53254;DHT22;39148;53.332;6.922;2023-07-24T09:38:29;18.20;83.10
53254;DHT22;39148;53.332;6.922;2023-07-24T09:40:56;19.40;83.60
53254;DHT22;39148;53.332;6.922;2023-07-24T09:43:25;19.40;83.70
53254;DHT22;39148;53.332;6.922;2023-07-24T09:45:52;19.40;83.70
53254;DHT22;39148;53.332;6.922;2023-07-24T09:48:19;19.50;83.70
53254;DHT22;39148;53.332;6.922;2023-07-24T09:50:47;19.50;84.20
53254;DHT22;39148;53.332;6.922;2023-07-24T09:56:05;19.50;82.70
53254;DHT22;39148;53.332;6.922;2023-07-24T09:58:37;19.40;83.60
53254;DHT22;39148;53.332;6.922;2023-07-24T10:01:05;19.40;83.70
53254;DHT22;39148;53.332;6.922;2023-07-24T10:03:54;19.60;83.60
53254;DHT22;39148;53.332;6.922;2023-07-24T10:06:19;19.50;83.60
53254;DHT22;39148;53.332;6.922;2023-07-24T10:08:46;19.60;83.60
53254;DHT22;39148;53.332;6.922;2023-07-24T10:11:13;19.60;83.50
53254;DHT22;39148;53.332;6.922;2023-07-24T10:13:41;19.60;83.50
53254;DHT22;39148;53.332;6.922;2023-07-24T10:16:07;19.50;83.50
53254;DHT22;39148;53.332;6.922;2023-07-24T10:18:34;19.70;83.90
53254;DHT22;39148;53.332;6.922;2023-07-24T10:21:05;19.60;83.50
53254;DHT22;39148;53.332;6.922;2023-07-24T10:23:34;19.70;84.10
53254;DHT22;39148;53.332;6.922;2023-07-24T10:26:05;19.60;83.50
53254;DHT22;39148;53.332;6.922;2023-07-24T10:28:32;19.70;83.60
53254;DHT22;39148;53.332;6.922;2023-07-24T10:30:58;19.70;83.50
53254;DHT22;39148;53.332;6.922;2023-07-24T10:33:24;21.50;84.30
53254;DHT22;39148;53.332;6.922;2023-07-24T10:35:54;19.80;83.50
53254;DHT22;39148;53.332;6.922;2023-07-24T10:38:20;19.90;83.90
53254;DHT22;39148;53.332;6.922;2023-07-24T10:41:02;20.00;83.80
53254;DHT22;39148;53.332;6.922;2023-07-24T10:43:29;19.90;83.90
53254;DHT22;39148;53.332;6.922;2023-07-24T10:45:54;19.90;83.80
53254;DHT22;39148;53.332;6.922;2023-07-24T10:48:23;19.90;83.70
53254;DHT22;39148;53.332;6.922;2023-07-24T10:50:50;19.80;83.70
53254;DHT22;39148;53.332;6.922;2023-07-24T10:53:18;20.00;83.80
53254;DHT22;39148;53.332;6.922;2023-07-24T10:55:45;20.00;83.80
53254;DHT22;39148;53.332;6.922;2023-07-24T10:58:12;20.10;83.80
53254;DHT22;39148;53.332;6.922;2023-07-24T11:00:44;19.90;83.70
53254;DHT22;39148;53.332;6.922;2023-07-24T11:03:11;20.00;82.40
53254;DHT22;39148;53.332;6.922;2023-07-24T11:05:45;19.90;83.60
53254;DHT22;39148;53.332;6.922;2023-07-24T11:08:15;20.10;83.80
53254;DHT22;39148;53.332;6.922;2023-07-24T11:10:49;20.10;84.20
53254;DHT22;39148;53.332;6.922;2023-07-24T11:13:25;20.00;82.40
53254;DHT22;39148;53.332;6.922;2023-07-24T11:15:52;20.10;83.60
53254;DHT22;39148;53.332;6.922;2023-07-24T11:18:18;20.10;83.40
53254;DHT22;39148;53.332;6.922;2023-07-24T11:20:52;20.20;83.50
53254;DHT22;39148;53.332;6.922;2023-07-24T11:23:18;20.20;83.60
53254;DHT22;39148;53.332;6.922;2023-07-24T11:25:44;20.10;83.10
53254;DHT22;39148;53.332;6.922;2023-07-24T11:28:11;20.10;83.20
53254;DHT22;39148;53.332;6.922;2023-07-24T11:30:37;20.10;83.30
53254;DHT22;39148;53.332;6.922;2023-07-24T11:33:10;20.20;83.20
53254;DHT22;39148;53.332;6.922;2023-07-24T11:35:37;20.20;83.30
53254;DHT22;39148;53.332;6.922;2023-07-24T11:38:08;20.20;83.20
53254;DHT22;39148;53.332;6.922;2023-07-24T11:40:40;20.20;83.20
53254;DHT22;39148;53.332;6.922;2023-07-24T11:43:19;20.30;83.30
53254;DHT22;39148;53.332;6.922;2023-07-24T11:45:45;20.20;82.00
53254;DHT22;39148;53.332;6.922;2023-07-24T11:48:14;20.20;83.10
53254;DHT22;39148;53.332;6.922;2023-07-24T11:50:44;20.20;83.00
53254;DHT22;39148;53.332;6.922;2023-07-24T11:53:31;20.40;83.20
53254;DHT22;39148;53.332;6.922;2023-07-24T11:55:59;20.20;81.90
53254;DHT22;39148;53.332;6.922;2023-07-24T11:58:28;20.40;83.00
53254;DHT22;39148;53.332;6.922;2023-07-24T12:00:55;19.30;82.40
53254;DHT22;39148;53.332;6.922;2023-07-24T12:03:28;20.30;83.00
53254;DHT22;39148;53.332;6.922;2023-07-24T12:05:54;20.30;83.20
53254;DHT22;39148;53.332;6.922;2023-07-24T12:08:21;20.50;82.90
53254;DHT22;39148;53.332;6.922;2023-07-24T12:10:54;20.40;83.00
53254;DHT22;39148;53.332;6.922;2023-07-24T12:13:20;20.40;82.70
53254;DHT22;39148;53.332;6.922;2023-07-24T12:15:48;20.60;82.80
53254;DHT22;39148;53.332;6.922;2023-07-24T12:18:14;20.50;81.70
53254;DHT22;39148;53.332;6.922;2023-07-24T12:20:40;20.50;82.70
53254;DHT22;39148;53.332;6.922;2023-07-24T12:23:06;20.40;82.60
53254;DHT22;39148;53.332;6.922;2023-07-24T12:25:31;20.60;82.70
53254;DHT22;39148;53.332;6.922;2023-07-24T12:27:57;20.40;82.60
53254;DHT22;39148;53.332;6.922;2023-07-24T12:30:23;20.50;82.60
53254;DHT22;39148;53.332;6.922;2023-07-24T12:32:49;20.50;82.70
53254;DHT22;39148;53.332;6.922;2023-07-24T12:35:15;20.60;82.60
53254;DHT22;39148;53.332;6.922;2023-07-24T12:37:41;20.60;82.90
53254;DHT22;39148;53.332;6.922;2023-07-24T12:40:08;20.60;82.80
53254;DHT22;39148;53.332;6.922;2023-07-24T12:42:34;20.60;82.70
53254;DHT22;39148;53.332;6.922;2023-07-24T12:45:00;20.50;82.80
53254;DHT22;39148;53.332;6.922;2023-07-24T12:47:28;20.60;82.70
53254;DHT22;39148;53.332;6.922;2023-07-24T12:49:54;20.70;82.80
53254;DHT22;39148;53.332;6.922;2023-07-24T12:52:21;20.60;82.80
53254;DHT22;39148;53.332;6.922;2023-07-24T12:54:47;20.60;82.60
53254;DHT22;39148;53.332;6.922;2023-07-24T12:57:13;20.70;82.50
53254;DHT22;39148;53.332;6.922;2023-07-24T12:59:39;20.70;82.50
53254;DHT22;39148;53.332;6.922;2023-07-24T13:02:04;20.70;82.40
53254;DHT22;39148;53.332;6.922;2023-07-24T13:04:31;20.70;82.50
53254;DHT22;39148;53.332;6.922;2023-07-24T13:06:57;20.70;82.30
53254;DHT22;39148;53.332;6.922;2023-07-24T13:09:24;20.70;82.50
53254;DHT22;39148;53.332;6.922;2023-07-24T13:11:50;20.70;82.40
53254;DHT22;39148;53.332;6.922;2023-07-24T13:14:17;20.70;82.50
53254;DHT22;39148;53.332;6.922;2023-07-24T13:16:43;20.70;82.40
53254;DHT22;39148;53.332;6.922;2023-07-24T13:19:09;20.70;82.50
53254;DHT22;39148;53.332;6.922;2023-07-24T13:21:34;20.80;82.50
53254;DHT22;39148;53.332;6.922;2023-07-24T13:24:00;20.70;82.40
53254;DHT22;39148;53.332;6.922;2023-07-24T13:26:26;20.80;82.50
53254;DHT22;39148;53.332;6.922;2023-07-24T13:28:52;20.70;82.30
53254;DHT22;39148;53.332;6.922;2023-07-24T13:31:20;20.80;82.50
53254;DHT22;39148;53.332;6.922;2023-07-24T13:33:46;20.80;82.60
53254;DHT22;39148;53.332;6.922;2023-07-24T13:36:12;20.80;82.40
53254;DHT22;39148;53.332;6.922;2023-07-24T13:38:39;20.90;82.50
53254;DHT22;39148;53.332;6.922;2023-07-24T13:41:04;20.90;82.60
53254;DHT22;39148;53.332;6.922;2023-07-24T13:43:31;20.90;82.50
53254;DHT22;39148;53.332;6.922;2023-07-24T13:45:57;20.80;82.50
53254;DHT22;39148;53.332;6.922;2023-07-24T13:48:24;20.80;82.40
53254;DHT22;39148;53.332;6.922;2023-07-24T13:50:50;20.80;82.40
53254;DHT22;39148;53.332;6.922;2023-07-24T13:53:16;20.80;82.40
53254;DHT22;39148;53.332;6.922;2023-07-24T13:55:41;20.80;82.30
53254;DHT22;39148;53.332;6.922;2023-07-24T13:58:07;20.90;82.50
53254;DHT22;39148;53.332;6.922;2023-07-24T14:00:33;20.80;82.20
53254;DHT22;39148;53.332;6.922;2023-07-24T14:02:58;20.80;82.40
53254;DHT22;39148;53.332;6.922;2023-07-24T14:05:24;20.90;82.30
53254;DHT22;39148;53.332;6.922;2023-07-24T14:07:50;20.80;82.20
53254;DHT22;39148;53.332;6.922;2023-07-24T14:10:15;20.80;82.20
53254;DHT22;39148;53.332;6.922;2023-07-24T14:12:41;21.00;82.20
53254;DHT22;39148;53.332;6.922;2023-07-24T14:15:07;20.90;82.30
53254;DHT22;39148;53.332;6.922;2023-07-24T14:17:33;20.90;82.00
53254;DHT22;39148;53.332;6.922;2023-07-24T14:20:04;20.90;82.40
53254;DHT22;39148;53.332;6.922;2023-07-24T14:22:30;20.90;81.20
53254;DHT22;39148;53.332;6.922;2023-07-24T14:24:56;20.90;82.40
53254;DHT22;39148;53.332;6.922;2023-07-24T14:27:22;20.90;82.40
53254;DHT22;39148;53.332;6.922;2023-07-24T14:29:47;20.90;82.30
53254;DHT22;39148;53.332;6.922;2023-07-24T14:32:13;21.00;82.40
53254;DHT22;39148;53.332;6.922;2023-07-24T14:34:41;20.90;82.40
53254;DHT22;39148;53.332;6.922;2023-07-24T14:37:06;20.90;82.20
53254;DHT22;39148;53.332;6.922;2023-07-24T14:39:32;20.90;82.30
53254;DHT22;39148;53.332;6.922;2023-07-24T14:41:58;20.90;82.30
53254;DHT22;39148;53.332;6.922;2023-07-24T14:44:25;20.80;82.30
53254;DHT22;39148;53.332;6.922;2023-07-24T14:46:51;20.90;82.50
53254;DHT22;39148;53.332;6.922;2023-07-24T14:49:17;20.90;82.30
53254;DHT22;39148;53.332;6.922;2023-07-24T14:51:42;20.90;82.40
53254;DHT22;39148;53.332;6.922;2023-07-24T14:54:08;20.80;82.30
53254;DHT22;39148;53.332;6.922;2023-07-24T14:56:34;20.90;82.40
53254;DHT22;39148;53.332;6.922;2023-07-24T14:59:00;21.10;82.50
53254;DHT22;39148;53.332;6.922;2023-07-24T15:01:26;20.80;82.50
53254;DHT22;39148;53.332;6.922;2023-07-24T15:03:54;20.90;82.40
53254;DHT22;39148;53.332;6.922;2023-07-24T15:06:21;20.90;82.50
53254;DHT22;39148;53.332;6.922;2023-07-24T15:08:47;20.90;82.40
53254;DHT22;39148;53.332;6.922;2023-07-24T15:11:12;21.00;82.50
53254;DHT22;39148;53.332;6.922;2023-07-24T15:13:39;20.80;82.40
53254;DHT22;39148;53.332;6.922;2023-07-24T15:16:04;20.90;82.40
53254;DHT22;39148;53.332;6.922;2023-07-24T15:18:30;20.90;82.40
53254;DHT22;39148;53.332;6.922;2023-07-24T15:20:57;21.00;82.50
53254;DHT22;39148;53.332;6.922;2023-07-24T15:23:23;20.90;82.60
53254;DHT22;39148;53.332;6.922;2023-07-24T15:25:48;20.90;82.30
53254;DHT22;39148;53.332;6.922;2023-07-24T15:28:14;20.90;82.50
53254;DHT22;39148;53.332;6.922;2023-07-24T15:30:40;21.00;82.50
53254;DHT22;39148;53.332;6.922;2023-07-24T15:33:05;20.90;82.50
53254;DHT22;39148;53.332;6.922;2023-07-24T15:35:31;21.00;82.50